createdAt,value
2024-01-06T00:00:11.880Z,5.66
2024-01-06T00:02:40.709Z,5.71
2024-01-06T00:05:10.018Z,5.56
2024-01-06T00:07:37.553Z,5.61
2024-01-06T00:10:05.417Z,5.66
2024-01-06T00:12:32.887Z,5.81
2024-01-06T00:15:00.350Z,5.46
2024-01-06T00:17:27.781Z,5.70
2024-01-06T00:19:56.660Z,5.61
2024-01-06T00:22:24.472Z,5.62
2024-01-06T00:24:51.952Z,5.70
2024-01-06T00:27:19.469Z,5.26
2024-01-06T00:29:47.000Z,5.13
2024-01-06T00:32:14.416Z,5.28
2024-01-06T00:34:41.936Z,5.28
2024-01-06T00:37:10.740Z,5.47
2024-01-06T00:39:38.233Z,5.58
2024-01-06T00:42:06.299Z,5.63
2024-01-06T00:44:34.188Z,5.63
2024-01-06T00:47:01.591Z,5.56
2024-01-06T00:49:29.191Z,5.63
2024-01-06T00:51:56.787Z,5.32
2024-01-06T00:54:25.552Z,5.25
2024-01-06T00:56:55.403Z,5.25
2024-01-06T00:59:24.078Z,5.21
2024-01-06T01:01:51.550Z,5.26
2024-01-06T01:04:19.098Z,5.33
2024-01-06T01:06:46.675Z,5.23
2024-01-06T01:09:15.293Z,5.38
2024-01-06T01:11:44.245Z,5.40
2024-01-06T01:14:11.771Z,5.33
2024-01-06T01:16:39.190Z,5.34
2024-01-06T01:19:06.656Z,5.30
2024-01-06T01:21:34.199Z,5.32
2024-01-06T01:24:01.659Z,5.17
2024-01-06T01:26:29.079Z,5.25
2024-01-06T01:28:57.818Z,5.05
2024-01-06T01:31:25.670Z,5.16
2024-01-06T01:33:53.418Z,5.19
2024-01-06T01:36:20.986Z,5.21
2024-01-06T01:38:48.454Z,5.22
2024-01-06T01:41:15.948Z,5.18
2024-01-06T01:43:43.364Z,5.26
2024-01-06T01:46:12.727Z,5.26
2024-01-06T01:48:40.754Z,5.20
2024-01-06T01:51:09.911Z,5.00
2024-01-06T01:53:37.694Z,4.93
2024-01-06T01:56:06.230Z,4.86
2024-01-06T01:58:33.728Z,4.82
2024-01-06T02:01:01.696Z,4.96
2024-01-06T02:03:32.623Z,4.98
2024-01-06T02:06:00.117Z,4.88
2024-01-06T02:08:27.841Z,4.74
2024-01-06T02:10:56.820Z,4.78
2024-01-06T02:13:24.603Z,4.86
2024-01-06T02:15:54.245Z,4.67
2024-01-06T02:18:21.879Z,4.70
2024-01-06T02:20:52.100Z,4.78
2024-01-06T02:23:20.887Z,4.48
2024-01-06T02:25:48.398Z,4.67
2024-01-06T02:28:15.811Z,4.71
2024-01-06T02:30:43.385Z,4.72
2024-01-06T02:33:11.057Z,4.71
2024-01-06T02:35:38.622Z,4.75
2024-01-06T02:38:06.024Z,4.58
2024-01-06T02:40:34.756Z,4.42
2024-01-06T02:43:02.264Z,4.36
2024-01-06T02:45:29.696Z,4.21
2024-01-06T02:47:57.241Z,3.92
2024-01-06T02:50:24.729Z,4.26
2024-01-06T02:52:52.162Z,4.23
2024-01-06T02:55:19.595Z,4.14
2024-01-06T02:57:48.525Z,4.09
2024-01-06T03:00:17.202Z,4.19
2024-01-06T03:02:44.640Z,4.34
2024-01-06T03:05:12.480Z,4.21
2024-01-06T03:07:39.922Z,4.41
2024-01-06T03:10:08.006Z,4.51
2024-01-06T03:12:35.414Z,4.33
2024-01-06T03:15:04.365Z,4.10
2024-01-06T03:17:32.034Z,4.13
2024-01-06T03:19:59.745Z,4.22
2024-01-06T03:22:27.382Z,4.32
2024-01-06T03:24:54.843Z,4.47
2024-01-06T03:27:22.331Z,4.21
2024-01-06T03:29:49.761Z,4.35
2024-01-06T03:32:18.481Z,4.41
2024-01-06T03:34:46.021Z,4.47
2024-01-06T03:37:13.653Z,4.19
2024-01-06T03:39:41.121Z,4.12
2024-01-06T03:42:08.864Z,4.34
2024-01-06T03:44:36.300Z,4.39
2024-01-06T03:47:03.718Z,4.23
2024-01-06T03:49:32.526Z,4.11
2024-01-06T03:52:00.091Z,4.18
2024-01-06T03:54:27.689Z,4.07
2024-01-06T03:56:55.114Z,4.11
2024-01-06T03:59:22.530Z,4.13
2024-01-06T04:01:50.147Z,3.98
2024-01-06T04:04:17.630Z,3.91
2024-01-06T04:06:46.487Z,4.05
2024-01-06T04:09:16.287Z,3.92
2024-01-06T04:11:45.169Z,4.05
2024-01-06T04:14:12.587Z,4.09
2024-01-06T04:16:39.979Z,3.69
2024-01-06T04:19:08.808Z,3.78
2024-01-06T04:21:36.394Z,3.89
2024-01-06T04:24:05.746Z,3.86
2024-01-06T04:26:33.182Z,3.94
2024-01-06T04:29:00.803Z,3.84
2024-01-06T04:31:28.412Z,3.62
2024-01-06T04:33:56.116Z,3.62
2024-01-06T04:36:23.655Z,3.56
2024-01-06T04:38:51.169Z,3.68
2024-01-06T04:41:19.944Z,3.87
2024-01-06T04:43:47.433Z,3.88
2024-01-06T04:46:14.898Z,3.59
2024-01-06T04:48:44.814Z,3.63
2024-01-06T04:51:12.517Z,3.52
2024-01-06T04:53:40.780Z,3.70
2024-01-06T04:56:08.223Z,3.78
2024-01-06T04:58:37.005Z,3.71
2024-01-06T05:01:05.424Z,3.76
2024-01-06T05:03:33.047Z,3.71
2024-01-06T05:06:00.530Z,3.74
2024-01-06T05:08:27.951Z,3.80
2024-01-06T05:10:55.565Z,3.90
2024-01-06T05:13:22.980Z,4.07
2024-01-06T05:15:51.920Z,3.85
2024-01-06T05:18:19.700Z,4.21
2024-01-06T05:20:47.403Z,4.31
2024-01-06T05:23:14.916Z,3.84
2024-01-06T05:25:42.325Z,4.14
2024-01-06T05:28:09.752Z,4.38
2024-01-06T05:30:37.253Z,4.45
2024-01-06T05:33:06.748Z,4.23
2024-01-06T05:35:34.805Z,4.28
2024-01-06T05:38:02.454Z,4.48
2024-01-06T05:40:29.856Z,4.38
2024-01-06T05:42:58.150Z,4.26
2024-01-06T05:45:28.382Z,4.48
2024-01-06T05:47:57.638Z,4.66
2024-01-06T05:50:26.412Z,4.67
2024-01-06T05:52:53.864Z,4.71
2024-01-06T05:55:21.579Z,4.62
2024-01-06T05:57:49.048Z,4.67
2024-01-06T06:00:17.487Z,4.66
2024-01-06T06:02:44.913Z,4.64
2024-01-06T06:05:12.407Z,4.87
2024-01-06T06:07:41.292Z,4.55
2024-01-06T06:10:10.423Z,4.52
2024-01-06T06:12:38.708Z,4.49
2024-01-06T06:15:07.515Z,4.78
2024-01-06T06:17:35.245Z,4.86
2024-01-06T06:20:02.791Z,5.00
2024-01-06T06:22:32.251Z,4.88
2024-01-06T06:25:01.787Z,4.80
2024-01-06T06:27:29.501Z,4.74
2024-01-06T06:29:58.174Z,4.72
2024-01-06T06:32:26.237Z,5.02
2024-01-06T06:34:54.047Z,5.02
2024-01-06T06:37:22.007Z,5.10
2024-01-06T06:39:49.473Z,5.10
2024-01-06T06:42:18.279Z,5.05
2024-01-06T06:44:45.719Z,4.91
2024-01-06T06:47:13.172Z,5.13
2024-01-06T06:49:40.809Z,5.00
2024-01-06T06:52:08.400Z,4.88
2024-01-06T06:54:35.949Z,5.09
2024-01-06T06:57:04.188Z,4.95
2024-01-06T06:59:32.950Z,5.16
2024-01-06T07:02:00.482Z,5.16
2024-01-06T07:04:28.260Z,5.35
2024-01-06T07:06:55.775Z,5.34
2024-01-06T07:09:24.557Z,5.29
2024-01-06T07:11:52.229Z,5.30
2024-01-06T07:14:19.762Z,5.31
2024-01-06T07:16:48.541Z,5.24
2024-01-06T07:19:16.543Z,4.97
2024-01-06T07:21:44.034Z,5.32
2024-01-06T07:24:11.509Z,5.19
2024-01-06T07:26:38.958Z,5.14
2024-01-06T07:29:06.401Z,5.39
2024-01-06T07:31:34.097Z,5.47
2024-01-06T07:34:03.050Z,5.59
2024-01-06T07:36:30.530Z,5.48
2024-01-06T07:38:57.950Z,5.32
2024-01-06T07:41:25.457Z,5.44
2024-01-06T07:43:52.920Z,5.02
2024-01-06T07:46:20.925Z,5.12
2024-01-06T07:48:48.429Z,5.38
2024-01-06T07:51:18.245Z,5.53
2024-01-06T07:53:45.856Z,5.60
2024-01-06T07:56:13.513Z,5.67
2024-01-06T07:58:40.962Z,5.78
2024-01-06T08:01:08.575Z,5.78
2024-01-06T08:03:36.251Z,5.82
2024-01-06T08:06:04.487Z,5.76
2024-01-06T08:08:33.310Z,5.74
2024-01-06T08:11:00.774Z,5.79
2024-01-06T08:13:28.241Z,5.79
2024-01-06T08:15:55.826Z,5.88
2024-01-06T08:18:23.544Z,5.99
2024-01-06T08:20:51.182Z,5.99
2024-01-06T08:23:19.949Z,5.94
2024-01-06T08:25:49.029Z,5.88
2024-01-06T08:28:19.674Z,5.80
2024-01-06T08:30:47.485Z,5.93
2024-01-06T08:33:15.136Z,5.70
2024-01-06T08:35:42.676Z,5.81
2024-01-06T08:38:10.110Z,6.01
2024-01-06T08:40:37.884Z,6.23
2024-01-06T08:43:06.712Z,6.09
2024-01-06T08:45:34.116Z,5.90
2024-01-06T08:48:01.581Z,6.10
2024-01-06T08:50:29.160Z,6.34
2024-01-06T08:52:56.600Z,6.49
2024-01-06T08:55:23.992Z,6.17
2024-01-06T08:57:51.435Z,5.99
2024-01-06T09:00:20.805Z,6.40
2024-01-06T09:02:48.262Z,6.47
2024-01-06T09:05:15.982Z,6.50
2024-01-06T09:07:43.440Z,6.53
2024-01-06T09:10:11.318Z,6.58
2024-01-06T09:15:08.117Z,6.74
2024-01-06T09:17:37.001Z,6.57
2024-01-06T09:20:05.430Z,6.76
2024-01-06T09:22:33.391Z,6.63
2024-01-06T09:25:01.169Z,6.80
2024-01-06T09:27:28.690Z,6.85
2024-01-06T09:29:56.132Z,6.67
2024-01-06T09:32:25.097Z,7.02
2024-01-06T09:34:54.069Z,6.74
2024-01-06T09:37:21.831Z,6.73
2024-01-06T09:39:49.297Z,6.56
2024-01-06T09:42:16.787Z,6.95
2024-01-06T09:44:44.252Z,7.24
2024-01-06T09:47:14.378Z,7.33
2024-01-06T09:49:47.779Z,7.39
2024-01-06T09:52:17.912Z,6.70
2024-01-06T09:54:55.825Z,7.14
2024-01-06T09:57:25.277Z,7.53
2024-01-06T09:59:53.449Z,7.63
2024-01-06T10:02:23.699Z,7.20
2024-01-06T10:04:52.455Z,7.59
2024-01-06T10:07:21.261Z,7.41
2024-01-06T10:09:48.728Z,7.58
2024-01-06T10:12:16.438Z,7.17
2024-01-06T10:14:45.943Z,7.67
2024-01-06T10:17:13.880Z,7.72
2024-01-06T10:19:41.359Z,7.89
2024-01-06T10:22:08.836Z,8.05
2024-01-06T10:24:40.166Z,7.93
2024-01-06T10:27:09.901Z,7.98
2024-01-06T10:29:37.454Z,7.95
2024-01-06T10:32:06.965Z,7.98
2024-01-06T10:34:34.556Z,7.59
2024-01-06T10:37:02.252Z,7.32
2024-01-06T10:39:30.912Z,7.78
2024-01-06T10:42:00.416Z,7.95
2024-01-06T10:44:31.458Z,7.83
2024-01-06T10:47:00.627Z,7.65
2024-01-06T10:49:31.064Z,8.01
2024-01-06T10:52:00.155Z,8.15
2024-01-06T10:54:29.318Z,8.52
2024-01-06T10:57:00.684Z,8.51
2024-01-06T10:59:30.537Z,8.24
2024-01-06T11:01:59.683Z,8.60
2024-01-06T11:04:27.611Z,8.79
2024-01-06T11:06:55.901Z,8.21
2024-01-06T11:09:26.484Z,8.07
2024-01-06T11:11:55.369Z,8.67
2024-01-06T11:14:26.958Z,8.98
2024-01-06T11:16:55.713Z,9.10
2024-01-06T11:19:47.060Z,8.05
2024-01-06T11:22:22.012Z,7.33
2024-01-06T11:24:50.824Z,8.17
2024-01-06T11:27:23.774Z,7.86
2024-01-06T11:29:55.325Z,8.01
2024-01-06T11:32:28.220Z,7.96
2024-01-06T11:34:57.538Z,8.40
2024-01-06T11:37:38.345Z,8.64
2024-01-06T11:40:10.056Z,8.88
2024-01-06T11:42:37.632Z,9.06
2024-01-06T11:45:08.260Z,7.95
2024-01-06T11:47:36.467Z,7.84
2024-01-06T11:50:05.696Z,7.84
2024-01-06T11:52:33.315Z,8.21
2024-01-06T11:55:01.658Z,8.52
2024-01-06T11:57:30.604Z,8.49
2024-01-06T11:59:58.130Z,7.90
2024-01-06T12:02:27.024Z,7.85
2024-01-06T12:04:55.766Z,7.78
2024-01-06T12:07:24.568Z,7.93
2024-01-06T12:09:53.958Z,7.61
2024-01-06T12:12:21.586Z,7.35
2024-01-06T12:14:49.090Z,7.69
2024-01-06T12:17:16.562Z,7.97
2024-01-06T12:19:46.517Z,7.71
2024-01-06T12:22:15.351Z,8.08
2024-01-06T12:24:43.508Z,8.53
2024-01-06T12:27:11.997Z,7.52
2024-01-06T12:29:41.009Z,7.65
2024-01-06T12:32:09.230Z,7.39
2024-01-06T12:34:37.269Z,7.46
2024-01-06T12:37:06.218Z,7.69
2024-01-06T12:39:33.925Z,7.49
2024-01-06T12:42:03.209Z,7.68
2024-01-06T12:44:30.727Z,7.55
2024-01-06T12:46:58.279Z,7.72
2024-01-06T12:49:25.864Z,7.42
2024-01-06T12:51:53.497Z,7.26
2024-01-06T12:54:22.407Z,7.37
2024-01-06T12:56:50.892Z,7.14
2024-01-06T12:59:19.883Z,7.01
2024-01-06T13:01:47.474Z,7.14
2024-01-06T13:04:15.105Z,6.99
2024-01-06T13:06:43.455Z,7.25
2024-01-06T13:09:13.721Z,7.23
2024-01-06T13:11:42.479Z,6.85
2024-01-06T13:14:09.995Z,7.05
2024-01-06T13:16:37.558Z,7.26
2024-01-06T13:19:05.748Z,7.51
2024-01-06T13:21:33.349Z,7.03
2024-01-06T13:24:03.580Z,7.09
2024-01-06T13:26:32.954Z,7.18
2024-01-06T13:29:02.680Z,7.00
2024-01-06T13:31:30.571Z,7.13
2024-01-06T13:33:58.107Z,7.27
2024-01-06T13:36:25.713Z,7.50
2024-01-06T13:38:53.212Z,7.19
2024-01-06T13:41:20.855Z,7.29
2024-01-06T13:43:48.854Z,7.76
2024-01-06T13:46:17.734Z,7.23
2024-01-06T13:48:45.284Z,7.58
2024-01-06T13:51:12.822Z,7.49
2024-01-06T13:53:40.311Z,7.03
2024-01-06T13:56:08.264Z,6.61
2024-01-06T13:58:36.758Z,6.89
2024-01-06T14:01:04.619Z,7.43
2024-01-06T14:03:34.050Z,7.21
2024-01-06T14:06:01.731Z,6.62
2024-01-06T14:08:29.234Z,6.70
2024-01-06T14:10:56.702Z,6.69
2024-01-06T14:13:24.108Z,6.55
2024-01-06T14:15:51.682Z,6.35
2024-01-06T14:18:19.299Z,6.28
2024-01-06T14:20:49.525Z,6.51
2024-01-06T14:23:16.997Z,6.06
2024-01-06T14:25:44.503Z,6.62
2024-01-06T14:28:12.784Z,6.33
2024-01-06T14:30:40.343Z,6.47
2024-01-06T14:33:07.962Z,5.95
2024-01-06T14:35:35.418Z,6.44
2024-01-06T14:38:04.293Z,5.95
2024-01-06T14:40:31.694Z,5.22
2024-01-06T14:42:59.269Z,5.88
2024-01-06T14:45:26.801Z,6.08
2024-01-06T14:47:54.499Z,5.48
2024-01-06T14:50:21.961Z,5.37
2024-01-06T14:52:50.222Z,5.32
2024-01-06T14:55:19.112Z,5.56
2024-01-06T14:57:46.693Z,5.85
2024-01-06T15:00:14.758Z,6.16
2024-01-06T15:02:42.406Z,5.54
2024-01-06T15:05:10.770Z,5.16
2024-01-06T15:07:38.525Z,5.11
2024-01-06T15:10:10.939Z,5.04
2024-01-06T15:12:39.787Z,4.66
2024-01-06T15:15:09.458Z,5.07
2024-01-06T15:17:37.664Z,4.99
2024-01-06T15:20:06.607Z,4.95
2024-01-06T15:22:35.479Z,4.86
2024-01-06T15:25:06.753Z,4.49
2024-01-06T15:27:34.998Z,4.47
2024-01-06T15:30:07.920Z,4.59
2024-01-06T15:32:36.847Z,4.91
2024-01-06T15:35:04.904Z,5.13
2024-01-06T15:37:32.531Z,4.99
2024-01-06T15:40:00.218Z,4.15
2024-01-06T15:42:27.991Z,4.53
2024-01-06T15:44:55.557Z,4.91
2024-01-06T15:47:24.293Z,4.94
2024-01-06T15:49:52.279Z,4.94
2024-01-06T15:52:22.434Z,5.13
2024-01-06T15:54:50.614Z,4.45
2024-01-06T15:57:18.221Z,4.34
2024-01-06T15:59:46.752Z,4.52
2024-01-06T16:02:14.201Z,4.25
2024-01-06T16:04:43.030Z,4.28
2024-01-06T16:07:10.634Z,4.69
2024-01-06T16:09:38.202Z,4.96
2024-01-06T16:12:07.149Z,5.19
2024-01-06T16:14:36.228Z,4.78
2024-01-06T16:17:04.987Z,4.83
2024-01-06T16:19:32.617Z,5.10
2024-01-06T16:22:11.164Z,4.97
2024-01-06T16:24:44.821Z,5.16
2024-01-06T16:27:12.384Z,5.39
2024-01-06T16:29:40.255Z,5.28
2024-01-06T16:32:08.849Z,4.32
2024-01-06T16:34:36.971Z,4.16
2024-01-06T16:37:06.769Z,4.66
2024-01-06T16:39:34.333Z,4.61
2024-01-06T16:42:01.760Z,4.55
2024-01-06T16:44:31.609Z,4.34
2024-01-06T16:47:00.690Z,4.36
2024-01-06T16:49:29.099Z,4.72
2024-01-06T16:51:56.829Z,3.96
2024-01-06T16:54:26.346Z,4.87
2024-01-06T16:56:54.443Z,5.09
2024-01-06T16:59:21.963Z,5.65
2024-01-06T17:01:49.462Z,4.55
2024-01-06T17:04:17.762Z,3.76
2024-01-06T17:06:45.441Z,3.99
2024-01-06T17:09:13.266Z,3.93
2024-01-06T17:11:42.087Z,4.26
2024-01-06T17:14:12.785Z,3.81
2024-01-06T17:16:40.200Z,3.46
2024-01-06T17:19:08.124Z,3.48
2024-01-06T17:21:36.179Z,3.45
2024-01-06T17:24:04.226Z,3.75
2024-01-06T17:26:31.694Z,3.51
2024-01-06T17:29:00.671Z,4.45
2024-01-06T17:31:28.221Z,4.88
2024-01-06T17:33:55.809Z,4.02
2024-01-06T17:36:23.342Z,3.90
2024-01-06T17:38:51.069Z,3.96
2024-01-06T17:41:19.626Z,4.43
2024-01-06T17:43:48.271Z,4.71
2024-01-06T17:46:17.020Z,4.11
2024-01-06T17:48:44.680Z,3.88
2024-01-06T17:51:12.232Z,3.41
2024-01-06T17:53:39.644Z,4.10
2024-01-06T17:56:08.064Z,4.13
2024-01-06T17:58:35.589Z,4.44
2024-01-06T18:01:03.284Z,3.50
2024-01-06T18:03:32.155Z,3.09
2024-01-06T18:05:59.756Z,3.49
2024-01-06T18:08:27.223Z,3.67
2024-01-06T18:10:54.655Z,3.19
2024-01-06T18:13:22.378Z,3.11
2024-01-06T18:15:49.807Z,3.25
2024-01-06T18:18:18.141Z,4.10
2024-01-06T18:20:50.176Z,3.99
2024-01-06T18:23:17.925Z,4.33
2024-01-06T18:25:45.450Z,3.79
2024-01-06T18:28:12.923Z,3.48
2024-01-06T18:30:40.609Z,3.98
2024-01-06T18:33:08.206Z,4.49
2024-01-06T18:35:35.836Z,4.53
2024-01-06T18:38:04.849Z,4.36
2024-01-06T18:40:32.276Z,4.11
2024-01-06T18:42:59.784Z,4.52
2024-01-06T18:45:27.337Z,4.66
2024-01-06T18:47:55.215Z,4.21
2024-01-06T18:50:23.970Z,3.67
2024-01-06T18:52:51.500Z,4.08
2024-01-06T18:55:20.370Z,4.23
2024-01-06T18:57:48.581Z,3.63
2024-01-06T19:00:19.010Z,3.50
2024-01-06T19:02:47.987Z,3.70
2024-01-06T19:05:15.540Z,3.39
2024-01-06T19:07:45.611Z,3.46
2024-01-06T19:10:14.324Z,3.79
2024-01-06T19:12:43.176Z,3.69
2024-01-06T19:15:11.109Z,3.63
2024-01-06T19:17:39.180Z,3.33
2024-01-06T19:20:07.287Z,3.12
2024-01-06T19:22:34.741Z,3.36
2024-01-06T19:25:02.260Z,3.16
2024-01-06T19:27:30.360Z,3.33
2024-01-06T19:29:59.140Z,3.83
2024-01-06T19:32:27.327Z,3.89
2024-01-06T19:34:55.843Z,2.90
2024-01-06T19:37:23.424Z,2.50
2024-01-06T19:39:50.880Z,3.16
2024-01-06T19:42:18.399Z,2.07
2024-01-06T19:44:47.004Z,2.77
2024-01-06T19:47:18.265Z,2.76
2024-01-06T19:49:45.809Z,2.59
2024-01-06T19:52:14.185Z,2.71
2024-01-06T19:54:41.615Z,2.53
2024-01-06T19:57:09.153Z,2.66
2024-01-06T19:59:36.628Z,2.69
2024-01-06T20:02:04.224Z,3.32
2024-01-06T20:04:33.124Z,3.17
2024-01-06T20:07:01.491Z,3.17
2024-01-06T20:09:29.072Z,3.21
2024-01-06T20:11:56.543Z,2.09
2024-01-06T20:14:24.027Z,2.15
2024-01-06T20:16:53.083Z,2.18
2024-01-06T20:19:20.587Z,2.80
2024-01-06T20:21:49.409Z,3.09
2024-01-06T20:24:16.977Z,2.67
2024-01-06T20:26:44.943Z,3.23
2024-01-06T20:29:13.259Z,2.44
2024-01-06T20:31:40.850Z,3.04
2024-01-06T20:34:08.626Z,2.43
2024-01-06T20:36:36.204Z,2.12
2024-01-06T20:39:05.638Z,2.65
2024-01-06T20:41:33.077Z,3.14
2024-01-06T20:44:01.939Z,2.82
2024-01-06T20:46:30.607Z,2.54
2024-01-06T20:48:58.307Z,2.90
2024-01-06T20:51:25.749Z,3.04
2024-01-06T20:53:53.176Z,3.20
2024-01-06T20:56:22.936Z,3.39
2024-01-06T20:58:50.470Z,3.53
2024-01-06T21:01:18.044Z,3.68
2024-01-06T21:03:46.130Z,2.97
2024-01-06T21:06:14.357Z,2.83
2024-01-06T21:08:41.849Z,2.50
2024-01-06T21:11:09.823Z,2.47
2024-01-06T21:13:38.602Z,3.24
2024-01-06T21:16:06.990Z,3.12
2024-01-06T21:18:34.736Z,2.67
2024-01-06T21:21:02.543Z,2.33
2024-01-06T21:23:39.860Z,2.78
2024-01-06T21:26:12.848Z,2.33
2024-01-06T21:28:41.771Z,2.44
2024-01-06T21:31:11.085Z,2.76
2024-01-06T21:33:38.953Z,2.77
2024-01-06T21:36:07.363Z,3.20
2024-01-06T21:38:35.580Z,2.20
2024-01-06T21:41:04.154Z,2.77
2024-01-06T21:43:31.782Z,2.85
2024-01-06T21:46:00.669Z,2.16
2024-01-06T21:48:29.101Z,2.91
2024-01-06T21:50:57.024Z,2.70
2024-01-06T21:53:24.482Z,2.88
2024-01-06T21:55:52.170Z,2.46
2024-01-06T21:58:19.571Z,2.96
2024-01-06T22:00:47.205Z,2.03
2024-01-06T22:03:16.263Z,2.66
2024-01-06T22:05:43.836Z,2.94
2024-01-06T22:08:11.263Z,2.91
2024-01-06T22:10:39.809Z,2.71
2024-01-06T22:13:07.267Z,2.96
2024-01-06T22:15:36.503Z,3.23
2024-01-06T22:18:04.706Z,1.60
2024-01-06T22:20:33.601Z,1.70
2024-01-06T22:23:01.039Z,1.67
2024-01-06T22:25:28.538Z,2.00
2024-01-06T22:27:56.061Z,1.82
2024-01-06T22:30:23.785Z,2.51
2024-01-06T22:32:51.379Z,2.78
2024-01-06T22:35:18.989Z,2.58
2024-01-06T22:37:47.868Z,2.69
2024-01-06T22:40:16.362Z,2.61
2024-01-06T22:42:44.097Z,2.44
2024-01-06T22:45:11.549Z,2.83
2024-01-06T22:47:39.086Z,2.78
2024-01-06T22:50:07.850Z,2.88
2024-01-06T22:52:35.269Z,2.18
2024-01-06T22:55:04.999Z,1.40
2024-01-06T22:57:32.544Z,1.30
2024-01-06T23:00:00.218Z,1.45
2024-01-06T23:02:27.849Z,1.26
2024-01-06T23:04:59.019Z,1.28
2024-01-06T23:07:26.738Z,2.02
2024-01-06T23:09:54.207Z,1.91
2024-01-06T23:12:23.050Z,2.16
2024-01-06T23:14:50.498Z,1.39
2024-01-06T23:17:17.934Z,1.86
2024-01-06T23:19:46.178Z,1.85
2024-01-06T23:22:14.518Z,1.48
2024-01-06T23:24:42.148Z,2.14
2024-01-06T23:27:09.928Z,1.17
2024-01-06T23:29:39.672Z,1.80
2024-01-06T23:32:08.522Z,1.81
2024-01-06T23:34:42.354Z,1.05
2024-01-06T23:37:11.843Z,1.31
2024-01-06T23:39:39.438Z,1.02
2024-01-06T23:42:07.165Z,1.25
2024-01-06T23:44:34.620Z,1.12
2024-01-06T23:47:03.443Z,1.11
2024-01-06T23:49:31.048Z,1.36
2024-01-06T23:51:58.603Z,1.67
2024-01-06T23:54:26.257Z,1.44
2024-01-06T23:56:53.694Z,1.85
2024-01-06T23:59:21.663Z,0.88
